Time;durP1;ratioP1;P1;durP2;ratioP2;P2;SDS_P1;SDS_P2;PMS_P1;PMS_P2;Temp;Humidity;BMP_temperature;BMP_pressure;BME280_temperature;BME280_humidity;BME280_pressure;Samples;Min_cycle;Max_cycle;Signal;HPM_P1;HPM_P2
2022/06/09 00:01:23;;;;;;;26.17;4.32;;;14.10;99.90;;;;;;5017160;28;20464;-73
2022/06/09 00:04:14;;;;;;;26.33;3.83;;;14.10;99.90;;;;;;5018809;28;20054;-73
2022/06/09 00:06:49;;;;;;;21.35;3.78;;;14.10;99.90;;;;;;5017231;28;20053;-73
2022/06/09 00:09:20;;;;;;;23.42;3.40;;;14.00;99.90;;;;;;5018720;28;20038;-73
2022/06/09 00:11:50;;;;;;;30.13;4.22;;;14.10;99.90;;;;;;5018424;28;20515;-73
2022/06/09 00:14:19;;;;;;;29.77;4.13;;;14.00;99.90;;;;;;5017172;28;20050;-73
2022/06/09 00:16:46;;;;;;;25.88;4.28;;;14.00;99.90;;;;;;5018191;28;20042;-73
2022/06/09 00:19:16;;;;;;;31.15;4.20;;;13.90;99.90;;;;;;5017151;28;20042;-73
2022/06/09 00:21:43;;;;;;;30.02;4.38;;;13.90;99.90;;;;;;4984856;28;20064;-73
2022/06/09 00:24:11;;;;;;;37.50;4.60;;;13.80;99.90;;;;;;5018203;28;20064;-73
2022/06/09 00:26:39;;;;;;;23.90;3.75;;;13.70;99.90;;;;;;5017468;28;20050;-73
2022/06/09 00:29:06;;;;;;;35.97;4.78;;;13.60;99.90;;;;;;5018041;28;20049;-73
2022/06/09 00:31:34;;;;;;;24.98;3.85;;;13.60;99.90;;;;;;5017889;28;20491;-72
2022/06/09 00:34:02;;;;;;;28.50;4.35;;;13.50;99.90;;;;;;5016919;28;20049;-73
2022/06/09 00:36:30;;;;;;;28.25;4.25;;;13.50;99.90;;;;;;5017679;28;20050;-73
2022/06/09 00:38:58;;;;;;;32.78;4.40;;;13.40;99.90;;;;;;5018112;28;20049;-73
2022/06/09 00:41:26;;;;;;;34.88;4.50;;;13.20;99.90;;;;;;5016890;28;20072;-73
2022/06/09 00:44:21;;;;;;;23.20;4.60;;;13.30;99.90;;;;;;5017885;28;20057;-73
2022/06/09 00:46:52;;;;;;;39.95;4.60;;;13.20;99.90;;;;;;4999667;28;20057;-73
2022/06/09 00:49:33;;;;;;;33.80;4.18;;;13.20;99.90;;;;;;5017638;28;20365;-73
2022/06/09 00:52:03;;;;;;;27.25;3.90;;;13.10;99.90;;;;;;5017898;28;20084;-73
2022/06/09 00:54:47;;;;;;;27.25;4.43;;;13.20;99.90;;;;;;5016541;28;20045;-73
2022/06/09 00:57:24;;;;;;;32.28;4.80;;;13.20;99.90;;;;;;5017465;28;20445;-73
2022/06/09 00:59:55;;;;;;;30.20;4.22;;;13.10;99.90;;;;;;5016066;28;20061;-73
2022/06/09 01:02:26;;;;;;;29.10;4.45;;;13.10;99.90;;;;;;5017572;28;20049;-73
2022/06/09 01:04:54;;;;;;;45.83;5.78;;;13.10;99.90;;;;;;5017315;28;20069;-73
2022/06/09 01:07:26;;;;;;;31.10;4.60;;;13.00;99.90;;;;;;4999496;28;20049;-73
2022/06/09 01:09:54;;;;;;;34.65;4.97;;;13.00;99.90;;;;;;5017288;28;20045;-73
2022/06/09 01:12:21;;;;;;;30.92;4.55;;;12.90;99.90;;;;;;5016382;28;20042;-73
2022/06/09 01:14:50;;;;;;;27.48;5.07;;;12.90;99.90;;;;;;5017403;28;20046;-72
2022/06/09 01:17:32;;;;;;;34.83;5.00;;;12.90;99.90;;;;;;5016953;28;20057;-73
2022/06/09 01:20:11;;;;;;;31.00;4.70;;;12.80;99.90;;;;;;5015885;28;20472;-73
2022/06/09 01:23:01;;;;;;;39.10;5.07;;;12.70;99.90;;;;;;4999909;28;20052;-73
2022/06/09 01:25:39;;;;;;;33.05;5.03;;;12.60;99.90;;;;;;4999835;28;20046;-73
2022/06/09 01:28:09;;;;;;;30.85;4.45;;;12.60;99.90;;;;;;4999369;28;20053;-72
2022/06/09 01:30:46;;;;;;;33.45;4.53;;;12.60;99.90;;;;;;5017062;28;20042;-73
2022/06/09 01:33:38;;;;;;;33.10;4.78;;;12.60;99.90;;;;;;5015985;28;20046;-73
2022/06/09 01:36:19;;;;;;;35.05;5.00;;;12.50;99.90;;;;;;4999892;28;20061;-72
2022/06/09 01:38:50;;;;;;;31.38;5.20;;;12.50;99.90;;;;;;5016991;28;20472;-73
2022/06/09 01:41:19;;;;;;;37.35;5.57;;;12.50;99.90;;;;;;5015386;28;20053;-73
2022/06/09 01:43:48;;;;;;;31.90;4.65;;;12.40;99.90;;;;;;5017087;28;20046;-72
2022/06/09 01:46:25;;;;;;;28.45;4.72;;;12.40;99.90;;;;;;5015555;28;20396;-72
2022/06/09 01:48:57;;;;;;;32.10;4.32;;;12.40;99.90;;;;;;4999550;28;20356;-73
2022/06/09 01:51:28;;;;;;;31.88;4.65;;;12.30;99.90;;;;;;4999309;28;20042;-73
2022/06/09 01:54:03;;;;;;;41.58;5.35;;;12.30;99.90;;;;;;4998406;28;20045;-73
2022/06/09 01:56:43;;;;;;;33.88;5.20;;;12.20;99.90;;;;;;5016995;28;20058;-72
2022/06/09 01:59:17;;;;;;;37.13;5.47;;;12.20;99.90;;;;;;5015278;28;20053;-73
2022/06/09 02:01:54;;;;;;;40.38;5.22;;;12.20;99.90;;;;;;5016276;28;20056;-73
2022/06/09 02:04:27;;;;;;;37.43;4.87;;;12.20;99.90;;;;;;5016182;28;20046;-73
2022/06/09 02:06:56;;;;;;;43.72;5.20;;;12.20;99.90;;;;;;5014483;28;20049;-73
2022/06/09 02:09:29;;;;;;;32.17;4.97;;;12.10;99.90;;;;;;5016181;28;20330;-73
2022/06/09 02:12:01;;;;;;;35.28;5.45;;;12.10;99.90;;;;;;5015708;28;20356;-73
2022/06/09 02:14:30;;;;;;;26.63;4.88;;;12.10;99.90;;;;;;5015148;28;20061;-72
2022/06/09 02:16:58;;;;;;;34.95;5.00;;;12.10;99.90;;;;;;5015914;28;20471;-72
2022/06/09 02:19:27;;;;;;;42.47;5.18;;;12.00;99.90;;;;;;5014858;28;20046;-73
2022/06/09 02:21:55;;;;;;;41.42;5.57;;;12.00;99.90;;;;;;5016151;28;20045;-73
2022/06/09 02:24:22;;;;;;;36.95;5.25;;;12.00;99.90;;;;;;5014910;28;20371;-73
2022/06/09 02:26:50;;;;;;;29.67;5.10;;;12.00;99.90;;;;;;5014707;28;20057;-73
2022/06/09 02:29:18;;;;;;;40.95;5.43;;;12.00;99.90;;;;;;5015758;28;20054;-73
2022/06/09 02:31:47;;;;;;;38.85;5.32;;;11.90;99.90;;;;;;5014927;28;20375;-73
2022/06/09 02:34:15;;;;;;;38.25;5.15;;;11.90;99.90;;;;;;5014743;28;20052;-72
2022/06/09 02:36:44;;;;;;;37.08;5.20;;;11.90;99.90;;;;;;5015668;28;20057;-73
2022/06/09 02:39:11;;;;;;;42.92;5.90;;;11.90;99.90;;;;;;5014365;28;20046;-72
2022/06/09 02:41:39;;;;;;;38.70;5.47;;;11.90;99.90;;;;;;5015314;28;20042;-73
2022/06/09 02:44:07;;;;;;;37.28;5.43;;;11.90;99.90;;;;;;5015599;28;20045;-73
2022/06/09 02:46:35;;;;;;;34.03;5.45;;;11.90;99.90;;;;;;5013401;28;20042;-72
2022/06/09 02:49:03;;;;;;;47.83;5.80;;;11.90;99.90;;;;;;5015294;28;20038;-72
2022/06/09 02:51:33;;;;;;;38.05;5.95;;;11.80;99.90;;;;;;5015435;28;20046;-73
2022/06/09 02:54:10;;;;;;;37.78;5.50;;;11.80;99.90;;;;;;5014333;28;20038;-73
2022/06/09 02:56:39;;;;;;;53.90;6.20;;;11.80;99.90;;;;;;5015245;28;20057;-72
2022/06/09 02:59:07;;;;;;;44.47;6.20;;;11.70;99.90;;;;;;5014048;28;20291;-72
2022/06/09 03:01:34;;;;;;;36.20;5.18;;;11.80;99.90;;;;;;5015310;28;20049;-72
2022/06/09 03:04:04;;;;;;;31.88;5.10;;;11.70;99.90;;;;;;5015368;28;20449;-73
2022/06/09 03:06:34;;;;;;;39.10;5.53;;;11.70;99.90;;;;;;4997061;28;20065;-73
2022/06/09 03:09:02;;;;;;;36.47;5.43;;;11.70;99.90;;;;;;5015347;28;20057;-73
2022/06/09 03:11:29;;;;;;;43.90;6.22;;;11.70;99.90;;;;;;5015041;28;20371;-72
2022/06/09 03:13:57;;;;;;;26.60;5.10;;;11.60;99.90;;;;;;5014279;28;20050;-73
2022/06/09 03:16:25;;;;;;;35.22;5.55;;;11.60;99.90;;;;;;5014968;28;20375;-72
2022/06/09 03:18:52;;;;;;;39.13;5.82;;;11.60;99.90;;;;;;5014908;28;20054;-73
2022/06/09 03:21:20;;;;;;;42.97;6.13;;;11.60;99.90;;;;;;5013729;28;20061;-73
2022/06/09 03:23:49;;;;;;;39.45;6.25;;;11.60;99.90;;;;;;5014640;28;20057;-72
2022/06/09 03:26:17;;;;;;;44.58;6.15;;;11.50;99.90;;;;;;4996751;28;20054;-72
2022/06/09 03:28:47;;;;;;;44.88;6.18;;;11.60;99.90;;;;;;5014682;28;20053;-72
2022/06/09 03:31:15;;;;;;;43.83;6.30;;;11.50;99.90;;;;;;5015106;28;20050;-72
2022/06/09 03:33:43;;;;;;;43.67;6.90;;;11.50;99.90;;;;;;5013580;28;20046;-72
2022/06/09 03:36:10;;;;;;;48.67;6.43;;;11.50;99.90;;;;;;5014708;28;20491;-72
2022/06/09 03:38:40;;;;;;;44.13;6.10;;;11.50;99.90;;;;;;5014744;28;20053;-72
2022/06/09 03:41:08;;;;;;;34.38;5.97;;;11.50;99.90;;;;;;5013704;28;20042;-72
2022/06/09 03:43:36;;;;;;;36.70;6.15;;;11.50;99.90;;;;;;5014899;28;20042;-73
2022/06/09 03:46:04;;;;;;;40.47;5.95;;;11.50;99.90;;;;;;5013737;28;20050;-73
2022/06/09 03:48:31;;;;;;;42.83;6.57;;;11.50;99.90;;;;;;5014615;28;20060;-72
2022/06/09 03:50:59;;;;;;;40.40;6.10;;;11.50;99.90;;;;;;5014689;28;20042;-72
2022/06/09 03:53:27;;;;;;;39.60;5.63;;;11.50;99.90;;;;;;5014015;28;20054;-72
2022/06/09 03:55:57;;;;;;;40.35;6.38;;;11.50;99.90;;;;;;5015021;28;20053;-72
2022/06/09 03:58:24;;;;;;;34.60;6.03;;;11.50;99.90;;;;;;5014575;28;20046;-72
2022/06/09 04:00:52;;;;;;;46.50;7.05;;;11.50;99.90;;;;;;5013285;28;20057;-73
2022/06/09 04:03:20;;;;;;;37.75;5.85;;;11.50;99.90;;;;;;5014671;28;20042;-72
2022/06/09 04:05:48;;;;;;;41.08;5.72;;;11.50;99.90;;;;;;5013345;28;20050;-73
2022/06/09 04:08:15;;;;;;;38.33;6.10;;;11.50;99.90;;;;;;5014589;28;20046;-72
2022/06/09 04:10:43;;;;;;;33.03;5.57;;;11.50;99.90;;;;;;5014497;28;20037;-72
2022/06/09 04:13:11;;;;;;;45.08;6.75;;;11.40;99.90;;;;;;5013321;28;20042;-72
2022/06/09 04:15:38;;;;;;;51.95;6.68;;;11.50;99.90;;;;;;5014889;28;20487;-72
2022/06/09 04:18:06;;;;;;;37.08;5.70;;;11.50;99.90;;;;;;4997289;28;20054;-73
2022/06/09 04:20:37;;;;;;;40.25;6.22;;;11.50;99.90;;;;;;5013520;28;20041;-73
2022/06/09 04:23:04;;;;;;;42.17;6.40;;;11.50;99.90;;;;;;5014775;28;20448;-72
2022/06/09 04:25:33;;;;;;;;;;;11.60;99.90;;;;;;5014811;28;20487;-73
2022/06/09 04:28:00;;;;;;;38.03;6.13;;;11.60;99.90;;;;;;5013367;28;19926;-72
2022/06/09 04:30:28;;;;;;;35.08;5.50;;;11.60;99.90;;;;;;5014241;28;20046;-72
2022/06/09 04:32:56;;;;;;;31.65;5.45;;;11.60;99.90;;;;;;4996543;28;20042;-72
2022/06/09 04:35:25;;;;;;;46.28;5.72;;;11.60;99.90;;;;;;5015669;28;20042;-73
2022/06/09 04:38:01;;;;;;;35.70;5.68;;;11.70;99.90;;;;;;5001013;28;20052;-72
2022/06/09 04:40:38;;;;;;;46.03;5.68;;;11.70;99.90;;;;;;5016680;28;20046;-72
2022/06/09 04:43:08;;;;;;;39.92;5.80;;;11.70;99.90;;;;;;5001352;28;20060;-73
2022/06/09 04:45:38;;;;;;;34.28;6.18;;;11.70;99.90;;;;;;5017932;28;20065;-73
2022/06/09 04:48:07;;;;;;;40.47;6.20;;;11.70;99.90;;;;;;5016114;28;20054;-72
2022/06/09 04:50:35;;;;;;;36.47;5.68;;;11.70;99.90;;;;;;5017722;28;20059;-73
2022/06/09 04:53:03;;;;;;;;;;;11.70;99.90;;;;;;5017101;28;20502;-72
2022/06/09 04:55:31;;;;;;;33.55;5.55;;;11.70;99.90;;;;;;5000810;28;19928;-72
2022/06/09 04:57:59;;;;;;;48.30;6.93;;;11.70;99.90;;;;;;5000342;28;20049;-72
2022/06/09 05:00:28;;;;;;;38.63;5.82;;;11.80;99.90;;;;;;5016109;28;20050;-73
2022/06/09 05:02:57;;;;;;;33.60;6.07;;;11.80;99.90;;;;;;5017392;28;20057;-72
2022/06/09 05:05:32;;;;;;;27.35;5.53;;;11.80;99.90;;;;;;4999937;28;20052;-74
2022/06/09 05:08:01;;;;;;;42.65;6.30;;;11.80;99.90;;;;;;5016230;28;20073;-74
2022/06/09 05:10:29;;;;;;;45.95;6.18;;;11.80;99.90;;;;;;5016931;28;20046;-74
2022/06/09 05:12:57;;;;;;;43.03;6.20;;;11.90;99.90;;;;;;5016181;28;20042;-74
2022/06/09 05:15:25;;;;;;;38.08;6.18;;;12.00;99.90;;;;;;5017209;28;20038;-74
2022/06/09 05:17:53;;;;;;;38.10;5.97;;;12.00;99.90;;;;;;5017024;28;20042;-74
2022/06/09 05:20:22;;;;;;;;;;;12.00;99.90;;;;;;5016381;28;20054;-74
2022/06/09 05:22:50;;;;;;;50.88;7.00;;;12.10;99.90;;;;;;4984104;28;19923;-74
2022/06/09 05:25:18;;;;;;;33.40;5.25;;;12.10;99.90;;;;;;4999801;28;20057;-74
2022/06/09 05:27:46;;;;;;;43.92;6.43;;;12.20;99.90;;;;;;5015873;28;20054;-74
2022/06/09 05:30:16;;;;;;;;;;;12.20;99.90;;;;;;5017313;28;20448;-74
2022/06/09 05:32:43;;;;;;;33.95;5.38;;;12.30;99.90;;;;;;5015937;28;19932;-74
2022/06/09 05:35:11;;;;;;;39.95;5.53;;;12.40;99.90;;;;;;5016842;28;20064;-74
2022/06/09 05:46:00;;;;;;;37.42;5.65;;;12.60;99.90;;;;;;5015424;28;20499;-74
2022/06/09 05:48:28;;;;;;;;;;;12.70;99.90;;;;;;5016578;28;20054;-74
2022/06/09 05:50:57;;;;;;;30.08;5.57;;;12.70;99.90;;;;;;5016553;28;19921;-74
2022/06/09 05:53:24;;;;;;;;;;;12.70;99.90;;;;;;5015722;28;20050;-74
2022/06/09 05:55:52;;;;;;;37.38;5.70;;;12.80;99.90;;;;;;5016259;28;19926;-74
2022/06/09 05:58:19;;;;;;;43.30;5.45;;;12.80;99.90;;;;;;5016268;28;20112;-74
2022/06/09 06:00:47;;;;;;;36.38;5.65;;;12.80;99.90;;;;;;5015097;28;20056;-74
2022/06/09 06:03:16;;;;;;;33.83;5.72;;;12.80;99.90;;;;;;5016555;28;20049;-74
2022/06/09 06:08:30;;;;;;;35.20;5.78;;;12.90;99.90;;;;;;5016502;28;20053;-74
2022/06/09 06:10:58;;;;;;;34.78;5.25;;;13.00;99.90;;;;;;4999111;28;20046;-74
2022/06/09 06:13:26;;;;;;;34.45;5.50;;;13.00;99.90;;;;;;5015099;28;20172;-74
2022/06/09 06:15:55;;;;;;;39.22;5.50;;;13.10;99.90;;;;;;5016231;28;20045;-74
2022/06/09 06:18:30;;;;;;;36.72;6.10;;;13.10;99.90;;;;;;5016138;28;20046;-74
2022/06/09 06:20:58;;;;;;;30.00;5.68;;;13.20;99.90;;;;;;5014740;28;20061;-74
2022/06/09 06:23:26;;;;;;;;;;;13.20;99.90;;;;;;5016734;28;20126;-74
2022/06/09 06:25:55;;;;;;;28.77;5.20;;;13.30;99.90;;;;;;5015000;28;20358;-74
2022/06/09 06:28:24;;;;;;;38.10;6.07;;;13.30;99.90;;;;;;5015897;28;20050;-74
2022/06/09 06:30:57;;;;;;;36.65;5.40;;;13.00;99.90;;;;;;5015018;28;20042;-74
2022/06/09 06:33:26;;;;;;;31.85;5.85;;;13.40;99.90;;;;;;4997603;28;20392;-74
2022/06/09 06:35:53;;;;;;;30.83;5.63;;;13.40;99.90;;;;;;5015360;28;20049;-74
2022/06/09 06:38:22;;;;;;;30.73;5.43;;;13.50;99.90;;;;;;5015186;28;20034;-75
2022/06/09 06:40:50;;;;;;;;;;;13.60;99.90;;;;;;5022958;28;20068;-75
2022/06/09 06:43:17;;;;;;;;;;;13.60;99.90;;;;;;5018447;28;19921;-75
2022/06/09 06:45:45;;;;;;;34.15;5.70;;;13.70;99.90;;;;;;5033903;28;19921;-72
2022/06/09 06:48:13;;;;;;;31.77;5.35;;;13.70;99.90;;;;;;5034958;28;20054;-71
2022/06/09 06:50:43;;;;;;;30.52;5.20;;;13.70;99.90;;;;;;5035034;28;20045;-72
2022/06/09 06:53:12;;;;;;;33.05;5.20;;;13.80;99.90;;;;;;5034021;28;20060;-73
2022/06/09 06:55:41;;;;;;;30.77;5.30;;;13.90;99.90;;;;;;5035572;28;20459;-72
2022/06/09 06:58:08;;;;;;;34.80;5.25;;;13.90;99.90;;;;;;5035049;28;20042;-72
2022/06/09 07:00:37;;;;;;;29.17;4.97;;;14.00;99.90;;;;;;5033974;28;20049;-72
2022/06/09 07:03:07;;;;;;;25.85;4.72;;;14.10;99.90;;;;;;5035121;28;20480;-72
2022/06/09 07:06:00;;;;;;;27.77;5.10;;;14.20;99.90;;;;;;5003915;28;20456;-72
2022/06/09 07:08:28;;;;;;;30.73;4.72;;;14.30;99.90;;;;;;5018393;28;20060;-73
2022/06/09 07:10:56;;;;;;;23.63;4.32;;;14.40;99.90;;;;;;5017747;28;20072;-73
2022/06/09 07:13:24;;;;;;;29.95;4.85;;;14.60;99.90;;;;;;5034436;28;20045;-74
2022/06/09 07:15:52;;;;;;;33.42;5.05;;;14.80;99.90;;;;;;5031878;28;20045;-74
2022/06/09 07:18:30;;;;;;;25.58;4.45;;;15.00;99.90;;;;;;4992798;28;20046;-74
2022/06/09 07:20:59;;;;;;;25.17;4.50;;;15.30;99.90;;;;;;4995447;28;20057;-74
2022/06/09 07:23:28;;;;;;;19.92;4.07;;;15.60;99.90;;;;;;5034567;28;20045;-75
2022/06/09 07:25:57;;;;;;;23.02;4.38;;;15.80;99.90;;;;;;5016121;28;20054;-74
2022/06/09 07:28:25;;;;;;;29.00;4.38;;;16.00;99.90;;;;;;5034699;28;20045;-73
2022/06/09 07:30:56;;;;;;;23.80;4.75;;;16.00;99.90;;;;;;5000708;28;20049;-74
2022/06/09 07:33:27;;;;;;;23.63;4.38;;;16.10;99.90;;;;;;5034015;28;20052;-74
2022/06/09 07:36:04;;;;;;;31.30;4.50;;;16.20;99.90;;;;;;5034880;28;20049;-74
2022/06/09 07:38:33;;;;;;;24.65;4.55;;;16.10;99.90;;;;;;5035134;28;20057;-74
2022/06/09 07:41:01;;;;;;;22.33;3.88;;;16.10;99.90;;;;;;5000140;28;20061;-74
2022/06/09 07:43:49;;;;;;;;;;;16.10;99.90;;;;;;5035711;28;20049;-74
2022/06/09 07:46:17;;;;;;;;;;;16.10;99.90;;;;;;5017186;28;19920;-74
2022/06/09 07:48:45;;;;;;;28.60;4.20;;;16.00;99.90;;;;;;5034735;28;19947;-73
2022/06/09 07:51:16;;;;;;;23.27;3.92;;;15.90;99.90;;;;;;5034725;28;20364;-73
2022/06/09 07:53:45;;;;;;;18.27;3.63;;;15.90;99.90;;;;;;5016513;28;20046;-73
2022/06/09 07:56:14;;;;;;;24.50;3.95;;;15.80;99.90;;;;;;5034227;28;20056;-73
2022/06/09 07:58:42;;;;;;;23.45;3.55;;;15.80;99.90;;;;;;5017666;28;20046;-73
2022/06/09 08:01:10;;;;;;;20.65;3.97;;;15.70;99.90;;;;;;5033658;28;20064;-72
2022/06/09 08:03:40;;;;;;;18.42;3.20;;;15.70;99.90;;;;;;5034660;28;20052;-72
2022/06/09 08:06:10;;;;;;;19.42;3.58;;;15.70;99.90;;;;;;5015903;28;20066;-72
2022/06/09 08:08:57;;;;;;;15.25;3.03;;;15.70;99.90;;;;;;5019636;28;20464;-72
2022/06/09 08:11:37;;;;;;;22.67;3.92;;;15.70;99.90;;;;;;5037674;28;20041;-72
2022/06/09 08:14:06;;;;;;;19.88;3.47;;;15.80;99.90;;;;;;5037506;28;20041;-72
2022/06/09 08:16:34;;;;;;;19.83;3.47;;;15.70;99.90;;;;;;5020948;28;20375;-72
2022/06/09 08:19:01;;;;;;;;;;;15.80;99.90;;;;;;5038236;28;20052;-72
2022/06/09 08:21:30;;;;;;;16.38;2.88;;;15.80;99.90;;;;;;5020871;28;19932;-72
2022/06/09 08:24:16;;;;;;;18.48;2.70;;;15.90;99.90;;;;;;5037786;28;20025;-72
2022/06/09 08:26:44;;;;;;;15.57;2.90;;;15.90;99.90;;;;;;5036776;28;20057;-72
2022/06/09 08:29:12;;;;;;;18.75;3.03;;;15.90;99.90;;;;;;5037979;28;20049;-72
2022/06/09 08:31:40;;;;;;;22.17;3.55;;;16.00;99.90;;;;;;5037560;28;20045;-72
2022/06/09 08:34:09;;;;;;;16.23;3.28;;;16.00;99.90;;;;;;5036728;28;20352;-72
2022/06/09 08:36:38;;;;;;;17.15;2.90;;;16.00;99.90;;;;;;5037939;28;20042;-72
2022/06/09 08:39:06;;;;;;;18.17;3.15;;;16.10;99.90;;;;;;5036626;28;20046;-72
2022/06/09 08:41:58;;;;;;;14.45;3.00;;;16.20;99.90;;;;;;5037373;28;20468;-72
2022/06/09 08:44:37;;;;;;;16.23;2.90;;;16.30;99.50;;;;;;5037328;28;20068;-72
2022/06/09 08:47:29;;;;;;;14.52;2.65;;;16.40;98.40;;;;;;5036496;28;20048;-72
2022/06/09 08:50:05;;;;;;;20.17;3.13;;;16.40;98.10;;;;;;5037354;28;20049;-72
2022/06/09 08:52:58;;;;;;;14.50;2.63;;;16.50;98.10;;;;;;5018850;28;20061;-72
2022/06/09 08:55:47;;;;;;;13.98;2.60;;;16.50;98.10;;;;;;5005135;28;20060;-72
2022/06/09 08:58:41;;;;;;;13.50;2.55;;;16.60;97.40;;;;;;5037357;28;20041;-72
2022/06/09 09:01:09;;;;;;;12.00;2.22;;;16.60;97.20;;;;;;5035752;28;20046;-72
2022/06/09 09:03:48;;;;;;;14.85;2.80;;;16.60;97.60;;;;;;5018114;28;20045;-74
2022/06/09 09:06:27;;;;;;;18.48;2.97;;;16.70;97.50;;;;;;5036652;28;20042;-72
2022/06/09 09:09:13;;;;;;;15.18;2.60;;;16.80;97.00;;;;;;5015177;28;20068;-73
2022/06/09 09:12:02;;;;;;;16.10;2.60;;;16.90;97.10;;;;;;5036396;28;20056;-73
2022/06/09 09:14:54;;;;;;;12.98;2.63;;;17.10;97.10;;;;;;5030930;28;20544;-75
2022/06/09 09:17:29;;;;;;;14.32;2.80;;;17.30;96.30;;;;;;5017059;28;20053;-72
2022/06/09 09:20:20;;;;;;;15.07;3.10;;;17.40;96.30;;;;;;5016226;28;20479;-72
2022/06/09 09:23:17;;;;;;;11.73;2.40;;;17.70;95.70;;;;;;4998749;28;20050;-72
2022/06/09 09:26:03;;;;;;;15.30;2.80;;;18.10;94.60;;;;;;4998849;28;20045;-73
2022/06/09 09:28:54;;;;;;;12.90;2.55;;;18.40;94.90;;;;;;5016512;28;20061;-73
2022/06/09 09:31:55;;;;;;;15.68;2.58;;;18.60;93.80;;;;;;5000197;28;20065;-73
2022/06/09 09:34:32;;;;;;;12.63;2.45;;;18.80;93.10;;;;;;5015823;28;20042;-72
2022/06/09 09:37:17;;;;;;;14.82;2.45;;;18.90;93.10;;;;;;5017072;28;20337;-72
2022/06/09 09:39:50;;;;;;;10.80;2.25;;;19.00;91.60;;;;;;4999019;28;20041;-72
2022/06/09 09:42:24;;;;;;;17.80;2.92;;;19.10;92.10;;;;;;4999526;28;20058;-73
2022/06/09 09:45:18;;;;;;;12.02;2.53;;;19.20;92.10;;;;;;5016694;28;20064;-73
2022/06/09 09:47:48;;;;;;;13.63;3.15;;;19.40;92.20;;;;;;5015661;28;20053;-72
2022/06/09 09:50:49;;;;;;;16.20;3.00;;;19.50;92.30;;;;;;5016609;28;20062;-73
2022/06/09 09:53:23;;;;;;;17.02;2.67;;;19.70;91.20;;;;;;5016010;28;20046;-73
2022/06/09 09:55:50;;;;;;;12.55;2.65;;;20.00;91.00;;;;;;5017031;28;20376;-73
2022/06/09 09:58:18;;;;;;;15.77;2.80;;;20.10;91.70;;;;;;5016446;28;20042;-73
2022/06/09 10:00:53;;;;;;;11.43;2.67;;;20.40;91.90;;;;;;5015632;28;20054;-73
2022/06/09 10:09:37;;;;;;;12.05;2.92;;;20.80;88.50;;;;;;4999007;28;20472;-73
2022/06/09 10:12:16;;;;;;;11.63;2.38;;;20.90;89.80;;;;;;5016587;28;20042;-74
2022/06/09 10:14:54;;;;;;;14.63;2.90;;;21.00;90.10;;;;;;5015484;28;20064;-74
2022/06/09 10:18:04;;;;;;;11.18;2.30;;;20.90;89.90;;;;;;5016045;28;20049;-73
2022/06/09 10:21:11;;;;;;;16.08;2.95;;;20.90;87.90;;;;;;5015076;28;20364;-73
2022/06/09 10:23:57;;;;;;;11.65;2.90;;;20.70;88.50;;;;;;5016773;28;20352;-73
2022/06/09 10:26:30;;;;;;;14.13;2.95;;;20.70;88.40;;;;;;4997922;28;20062;-73
2022/06/09 10:29:22;;;;;;;12.10;2.53;;;20.80;88.40;;;;;;4999050;28;20069;-73
2022/06/09 10:32:06;;;;;;;15.57;2.83;;;21.10;87.30;;;;;;5016253;28;20065;-74
2022/06/09 10:35:00;;;;;;;14.10;3.00;;;21.30;86.40;;;;;;4997230;28;20045;-74
2022/06/09 10:37:43;;;;;;;14.70;2.42;;;21.40;86.50;;;;;;5015797;28;20038;-74
2022/06/09 10:40:32;;;;;;;9.60;2.55;;;21.50;85.00;;;;;;5015299;28;20046;-74
2022/06/09 10:43:10;;;;;;;15.00;2.42;;;22.50;85.30;;;;;;5016258;28;20061;-74
2022/06/09 10:46:03;;;;;;;10.80;2.50;;;21.50;85.20;;;;;;5016305;28;20057;-74
2022/06/09 10:55:17;;;;;;;17.95;2.63;;;21.50;84.50;;;;;;5014194;28;20041;-74
2022/06/09 10:58:04;;;;;;;12.57;2.92;;;21.50;84.60;;;;;;5015929;28;20049;-74
2022/06/09 11:00:35;;;;;;;11.85;2.50;;;21.70;85.90;;;;;;5013528;28;20064;-74
2022/06/09 11:03:15;;;;;;;13.25;2.67;;;21.80;85.50;;;;;;5035272;28;20045;-74
2022/06/09 11:06:00;;;;;;;16.30;2.90;;;21.80;82.90;;;;;;5033837;28;20056;-74
2022/06/09 11:08:41;;;;;;;10.57;2.58;;;21.90;84.20;;;;;;5034596;28;20056;-74
2022/06/09 11:11:17;;;;;;;10.50;2.55;;;21.90;84.20;;;;;;5035369;28;20045;-74
2022/06/09 11:14:05;;;;;;;12.38;2.58;;;22.00;84.30;;;;;;5033877;28;20064;-74
2022/06/09 11:17:17;;;;;;;13.73;2.83;;;22.00;83.90;;;;;;5035162;28;20041;-74
2022/06/09 11:19:59;;;;;;;12.95;3.22;;;22.10;83.50;;;;;;5001263;28;20046;-74
2022/06/09 11:22:29;;;;;;;15.63;3.00;;;22.10;83.10;;;;;;5034592;28;20045;-74
2022/06/09 11:25:23;;;;;;;10.50;3.25;;;22.50;85.20;;;;;;5034848;28;20368;-74
2022/06/09 11:28:21;;;;;;;10.73;2.92;;;22.20;83.90;;;;;;5009225;28;20415;-74
2022/06/09 11:31:06;;;;;;;14.93;3.10;;;22.10;85.00;;;;;;5034015;28;20045;-74
2022/06/09 11:34:13;;;;;;;16.30;3.10;;;22.00;85.00;;;;;;5033651;28;20046;-74
2022/06/09 11:36:53;;;;;;;14.38;3.45;;;21.80;86.30;;;;;;5014378;28;20056;-74
2022/06/09 11:39:46;;;;;;;16.73;3.35;;;21.70;85.40;;;;;;5032792;28;20312;-74
2022/06/09 11:42:50;;;;;;;15.68;3.10;;;21.60;84.80;;;;;;5034917;28;20045;-74
2022/06/09 11:45:28;;;;;;;17.02;3.08;;;21.60;84.80;;;;;;5018762;28;20375;-74
2022/06/09 11:47:59;;;;;;;18.02;3.42;;;21.50;85.50;;;;;;5037618;28;20048;-74
2022/06/09 11:50:40;;;;;;;17.70;2.90;;;21.40;85.90;;;;;;5038517;28;20048;-74
2022/06/09 11:53:21;;;;;;;11.70;2.95;;;21.20;85.90;;;;;;5037335;28;20116;-74
2022/06/09 11:55:57;;;;;;;17.75;3.40;;;21.20;86.70;;;;;;5054102;28;20041;-74
2022/06/09 11:58:34;;;;;;;13.60;2.88;;;21.20;87.10;;;;;;5038382;28;20056;-74
2022/06/09 12:01:42;;;;;;;14.25;3.15;;;21.30;88.00;;;;;;5023023;28;20054;-74
2022/06/09 12:04:26;;;;;;;17.08;3.42;;;21.20;87.10;;;;;;5018659;28;20045;-75
2022/06/09 12:07:15;;;;;;;15.73;2.72;;;21.20;87.30;;;;;;5017932;28;20049;-74
2022/06/09 12:09:58;;;;;;;14.93;3.00;;;21.50;87.40;;;;;;5001129;28;20057;-74
2022/06/09 12:12:38;;;;;;;9.88;2.95;;;21.80;87.40;;;;;;5017432;28;20377;-74
2022/06/09 12:15:26;;;;;;;13.90;2.88;;;22.20;86.10;;;;;;5001632;28;20128;-74
2022/06/09 12:17:57;;;;;;;;;;;22.50;84.60;;;;;;4985414;28;20050;-74
2022/06/09 12:20:27;;;;;;;13.73;2.47;;;22.60;84.30;;;;;;5017354;28;20279;-74
2022/06/09 12:23:20;;;;;;;13.23;2.90;;;22.70;84.50;;;;;;5018151;28;20061;-74
2022/06/09 12:26:08;;;;;;;11.43;2.45;;;22.70;84.30;;;;;;5017114;28;20416;-74
2022/06/09 12:28:55;;;;;;;10.32;2.50;;;22.90;82.90;;;;;;5018207;28;20467;-74
2022/06/09 12:31:35;;;;;;;14.50;2.93;;;23.00;81.50;;;;;;5018013;28;20050;-74
2022/06/09 12:34:09;;;;;;;15.95;3.17;;;23.00;82.30;;;;;;5017036;28;20046;-74
2022/06/09 12:36:40;;;;;;;11.02;2.65;;;23.00;83.70;;;;;;5018281;28;20053;-75
2022/06/09 12:39:25;;;;;;;11.95;2.60;;;23.10;84.40;;;;;;5017171;28;20046;-78
2022/06/09 12:42:17;;;;;;;11.20;2.58;;;23.00;83.40;;;;;;5000742;28;20045;-75
2022/06/09 12:45:06;;;;;;;13.48;3.10;;;23.00;82.80;;;;;;5017338;28;20472;-74
2022/06/09 12:47:34;;;;;;;11.43;2.90;;;23.00;84.00;;;;;;5032773;28;20041;-76
2022/06/09 12:50:37;;;;;;;10.85;2.55;;;23.20;84.80;;;;;;5019202;28;20380;-75
2022/06/09 12:53:07;;;;;;;16.65;2.55;;;21.60;81.20;;;;;;5019620;28;20047;-75
2022/06/09 12:55:40;;;;;;;12.30;2.42;;;23.20;82.50;;;;;;5006356;28;20368;-73
2022/06/09 12:58:19;;;;;;;10.57;3.00;;;23.20;81.70;;;;;;5037081;28;20376;-73
2022/06/09 13:01:03;;;;;;;9.38;2.17;;;23.40;79.60;;;;;;5039469;28;20052;-74
2022/06/09 13:03:54;;;;;;;11.00;2.33;;;23.50;80.10;;;;;;5055156;28;20068;-73
2022/06/09 13:06:37;;;;;;;9.55;2.03;;;23.40;79.50;;;;;;5027523;28;20049;-73
2022/06/09 13:09:27;;;;;;;9.13;2.20;;;23.30;80.20;;;;;;5036209;28;20060;-72
2022/06/09 13:14:52;;;;;;;9.85;2.60;;;23.50;81.30;;;;;;5036490;28;20046;-76
2022/06/09 13:17:26;;;;;;;9.73;2.45;;;23.60;81.40;;;;;;5036623;28;20482;-75
2022/06/09 13:20:02;;;;;;;13.43;2.72;;;24.00;80.00;;;;;;5035071;28;20041;-75
2022/06/09 13:22:33;;;;;;;12.57;2.70;;;24.80;80.20;;;;;;5036454;28;20482;-76
2022/06/09 13:25:04;;;;;;;12.32;2.40;;;24.20;80.00;;;;;;5036625;28;20049;-75
2022/06/09 13:27:33;;;;;;;11.70;2.47;;;24.90;78.70;;;;;;5035250;28;20053;-75
2022/06/09 13:30:27;;;;;;;10.48;2.70;;;25.10;79.00;;;;;;5036483;28;20056;-75
2022/06/09 13:32:55;;;;;;;10.48;2.53;;;25.50;78.40;;;;;;5034992;28;20045;-74
2022/06/09 13:35:44;;;;;;;11.40;2.80;;;25.40;77.00;;;;;;5036385;28;20045;-74
2022/06/09 13:38:25;;;;;;;11.00;2.45;;;25.00;77.00;;;;;;5049131;28;20498;-75
2022/06/09 13:40:57;;;;;;;13.82;2.65;;;25.00;77.90;;;;;;5043991;28;20040;-74
2022/06/09 13:43:30;;;;;;;13.80;2.70;;;25.60;78.40;;;;;;5056215;28;20045;-74
2022/06/09 13:46:10;;;;;;;15.77;3.05;;;27.00;78.40;;;;;;5054873;28;20041;-75